createdAt,value
2022-12-09T00:00:13.046Z,91.85
2022-12-09T00:01:17.227Z,91.61
2022-12-09T00:02:19.252Z,91.96
2022-12-09T00:03:23.848Z,91.43
2022-12-09T00:04:25.835Z,91.07
2022-12-09T00:05:27.577Z,91.45
2022-12-09T00:06:30.391Z,91.53
2022-12-09T00:07:32.007Z,91.69
2022-12-09T00:08:33.631Z,92.24
2022-12-09T00:09:35.445Z,91.87
2022-12-09T00:10:37.032Z,91.95
2022-12-09T00:11:38.823Z,92.07
2022-12-09T00:12:40.408Z,91.82
2022-12-09T00:13:42.243Z,91.50
2022-12-09T00:14:43.794Z,91.61
2022-12-09T00:15:45.380Z,91.77
2022-12-09T00:16:47.296Z,91.68
2022-12-09T00:17:49.026Z,91.78
2022-12-09T00:18:51.389Z,91.29
2022-12-09T00:19:53.189Z,91.24
2022-12-09T00:20:54.762Z,91.35
2022-12-09T00:21:56.319Z,91.50
2022-12-09T00:22:57.834Z,91.64
2022-12-09T00:24:02.454Z,91.76
2022-12-09T00:25:04.385Z,91.63
2022-12-09T00:26:06.068Z,91.89
2022-12-09T00:27:07.676Z,92.24
2022-12-09T00:28:09.467Z,91.95
2022-12-09T00:29:12.239Z,92.00
2022-12-09T00:30:14.054Z,91.80
2022-12-09T00:31:21.710Z,91.82
2022-12-09T00:32:23.655Z,91.52
2022-12-09T00:33:25.279Z,91.33
2022-12-09T00:34:27.011Z,91.11
2022-12-09T00:35:28.649Z,90.93
2022-12-09T00:36:31.348Z,91.04
2022-12-09T00:37:34.158Z,91.36
2022-12-09T00:38:36.254Z,91.39
2022-12-09T00:39:38.141Z,90.97
2022-12-09T00:40:39.665Z,91.22
2022-12-09T00:41:41.460Z,91.20
2022-12-09T00:42:43.164Z,91.29
2022-12-09T00:43:45.385Z,91.57
2022-12-09T00:44:46.991Z,91.45
2022-12-09T00:45:48.874Z,91.64
2022-12-09T00:46:50.682Z,92.55
2022-12-09T00:47:52.383Z,92.28
2022-12-09T00:48:54.337Z,92.41
2022-12-09T00:49:55.901Z,92.22
2022-12-09T00:50:57.453Z,92.53
2022-12-09T00:51:59.319Z,92.42
2022-12-09T00:53:01.130Z,92.32
2022-12-09T00:54:02.840Z,92.83
2022-12-09T00:55:05.044Z,93.05
2022-12-09T00:56:07.056Z,93.11
2022-12-09T00:57:08.851Z,93.85
2022-12-09T00:58:11.074Z,94.67
2022-12-09T00:59:12.621Z,95.92
2022-12-09T01:00:14.332Z,95.57
2022-12-09T01:01:16.279Z,95.59
2022-12-09T01:02:18.230Z,95.47
2022-12-09T01:03:20.473Z,95.12
2022-12-09T01:04:22.252Z,95.08
2022-12-09T01:05:24.281Z,95.02
2022-12-09T01:06:27.218Z,94.73
2022-12-09T01:07:29.558Z,94.57
2022-12-09T01:08:31.166Z,94.88
2022-12-09T01:09:34.840Z,94.60
2022-12-09T01:10:37.992Z,95.16
2022-12-09T01:11:39.541Z,95.09
2022-12-09T01:12:41.171Z,94.49
2022-12-09T01:13:42.816Z,94.98
2022-12-09T01:14:44.559Z,94.57
2022-12-09T01:15:46.170Z,95.47
2022-12-09T01:16:47.831Z,95.71
2022-12-09T01:17:49.705Z,95.52
2022-12-09T01:18:57.439Z,96.76
2022-12-09T01:19:59.146Z,95.76
2022-12-09T01:21:00.656Z,95.52
2022-12-09T01:22:02.524Z,95.92
2022-12-09T01:23:04.518Z,95.44
2022-12-09T01:24:11.125Z,95.23
2022-12-09T01:25:13.069Z,95.09
2022-12-09T01:26:14.849Z,95.73
2022-12-09T01:27:16.698Z,95.95
2022-12-09T01:28:18.511Z,96.82
2022-12-09T01:29:20.145Z,96.16
2022-12-09T01:30:21.729Z,95.82
2022-12-09T01:31:24.954Z,96.43
2022-12-09T01:32:26.984Z,96.43
2022-12-09T01:33:28.871Z,95.57
2022-12-09T01:34:30.623Z,95.49
2022-12-09T01:35:32.410Z,94.91
2022-12-09T01:36:34.324Z,95.29
2022-12-09T01:37:36.844Z,95.91
2022-12-09T01:38:38.449Z,96.14
2022-12-09T01:39:40.079Z,95.92
2022-12-09T01:40:47.035Z,95.94
2022-12-09T01:41:51.310Z,96.04
2022-12-09T01:42:53.139Z,96.25
2022-12-09T01:44:08.104Z,96.41
2022-12-09T01:45:30.759Z,96.20
2022-12-09T01:46:32.638Z,95.20
2022-12-09T01:47:34.267Z,95.54
2022-12-09T01:48:43.469Z,95.14
2022-12-09T01:49:48.229Z,94.58
2022-12-09T01:50:52.982Z,94.74
2022-12-09T01:52:26.897Z,94.37
2022-12-09T01:53:33.869Z,93.99
2022-12-09T01:54:35.885Z,93.53
2022-12-09T01:55:38.061Z,93.55
2022-12-09T01:56:40.992Z,94.46
2022-12-09T01:57:45.125Z,94.98
2022-12-09T01:58:47.845Z,95.81
2022-12-09T01:59:49.941Z,95.28
2022-12-09T02:00:51.548Z,94.80
2022-12-09T02:01:56.652Z,94.93
2022-12-09T02:03:00.930Z,94.03
2022-12-09T02:04:03.048Z,93.88
2022-12-09T02:05:05.978Z,93.09
2022-12-09T02:06:08.114Z,92.98
2022-12-09T02:07:10.812Z,92.61
2022-12-09T02:08:15.398Z,92.59
2022-12-09T02:09:17.381Z,93.13
2022-12-09T02:10:19.915Z,93.41
2022-12-09T02:11:53.504Z,93.20
2022-12-09T02:13:33.920Z,93.31
2022-12-09T02:15:07.531Z,93.28
2022-12-09T02:16:13.546Z,93.11
2022-12-09T02:17:25.073Z,93.22
2022-12-09T02:18:36.875Z,93.52
2022-12-09T02:19:44.552Z,93.26
2022-12-09T02:20:55.578Z,92.99
2022-12-09T02:22:00.301Z,93.51
2022-12-09T02:23:18.144Z,93.70
2022-12-09T02:24:46.135Z,93.37
2022-12-09T02:25:52.082Z,92.86
2022-12-09T02:27:41.388Z,92.52
2022-12-09T02:29:05.233Z,92.75
2022-12-09T02:30:29.083Z,92.87
2022-12-09T02:31:40.950Z,92.94
2022-12-09T02:32:43.141Z,92.57
2022-12-09T02:34:23.203Z,93.06
2022-12-09T02:35:31.464Z,92.90
2022-12-09T02:37:11.504Z,93.01
2022-12-09T02:38:22.760Z,93.00
2022-12-09T02:39:50.028Z,93.68
2022-12-09T02:41:03.478Z,93.18
2022-12-09T02:42:09.150Z,93.51
2022-12-09T02:43:12.895Z,93.63
2022-12-09T02:44:18.045Z,95.21
2022-12-09T02:45:22.334Z,95.25
2022-12-09T02:46:25.071Z,95.24
2022-12-09T02:47:30.865Z,94.88
2022-12-09T02:48:38.991Z,94.74
2022-12-09T02:49:43.231Z,94.24
2022-12-09T02:50:49.486Z,94.03
2022-12-09T02:51:51.551Z,94.98
2022-12-09T02:52:54.542Z,96.14
2022-12-09T02:54:03.397Z,97.22
2022-12-09T02:55:09.471Z,97.87
2022-12-09T02:56:15.058Z,99.01
2022-12-09T02:57:25.988Z,99.42
2022-12-09T02:58:27.842Z,99.76
2022-12-09T02:59:29.602Z,99.66
2022-12-09T03:00:31.178Z,99.35
2022-12-09T03:01:40.262Z,99.35
2022-12-09T03:02:46.126Z,98.51
2022-12-09T03:03:48.278Z,99.29
2022-12-09T03:05:16.871Z,99.49
2022-12-09T03:06:19.985Z,98.45
2022-12-09T03:07:40.895Z,98.17
2022-12-09T03:08:52.372Z,98.23
2022-12-09T03:10:03.348Z,98.05
2022-12-09T03:11:10.792Z,97.53
2022-12-09T03:12:18.562Z,96.62
2022-12-09T03:14:03.443Z,96.94
2022-12-09T03:15:07.537Z,96.47
2022-12-09T03:16:32.938Z,96.28
2022-12-09T03:17:37.821Z,95.89
2022-12-09T03:18:47.797Z,95.87
2022-12-09T03:19:49.342Z,94.89
2022-12-09T03:20:51.418Z,94.94
2022-12-09T03:21:57.281Z,94.45
2022-12-09T03:23:03.028Z,94.18
2022-12-09T03:24:09.002Z,94.49
2022-12-09T03:25:14.204Z,93.96
2022-12-09T03:26:17.321Z,93.27
2022-12-09T03:27:25.489Z,93.74
2022-12-09T03:28:35.099Z,94.21
2022-12-09T03:29:42.720Z,94.14
2022-12-09T03:30:46.056Z,95.70
2022-12-09T03:31:50.978Z,97.03
2022-12-09T03:32:54.841Z,97.77
2022-12-09T03:34:01.893Z,97.04
2022-12-09T03:35:09.551Z,96.58
2022-12-09T03:36:14.232Z,96.18
2022-12-09T03:37:18.953Z,96.61
2022-12-09T03:38:23.498Z,96.04
2022-12-09T03:39:29.203Z,96.09
2022-12-09T03:40:33.012Z,97.34
2022-12-09T03:41:34.939Z,97.87
2022-12-09T03:42:58.331Z,98.29
2022-12-09T03:44:08.538Z,98.17
2022-12-09T03:45:12.255Z,98.39
2022-12-09T03:46:14.007Z,99.22
2022-12-09T03:47:16.568Z,98.38
2022-12-09T03:48:19.081Z,97.67
2022-12-09T03:49:20.992Z,97.54
2022-12-09T03:50:27.405Z,96.45
2022-12-09T03:51:57.312Z,96.21
2022-12-09T03:53:06.329Z,96.29
2022-12-09T03:54:22.282Z,95.31
2022-12-09T03:55:44.487Z,95.67
2022-12-09T03:56:49.383Z,95.56
2022-12-09T03:57:55.169Z,94.85
2022-12-09T03:58:59.051Z,94.85
2022-12-09T04:00:02.853Z,95.41
2022-12-09T04:01:06.866Z,95.77
2022-12-09T04:02:09.468Z,95.10
2022-12-09T04:03:13.799Z,95.05
2022-12-09T04:04:16.929Z,95.45
2022-12-09T04:05:18.671Z,95.08
2022-12-09T04:06:20.847Z,94.26
2022-12-09T04:07:22.823Z,94.46
2022-12-09T04:08:25.403Z,93.82
2022-12-09T04:09:27.869Z,94.20
2022-12-09T04:10:29.723Z,93.29
2022-12-09T04:11:33.481Z,94.20
2022-12-09T04:12:35.743Z,94.11
2022-12-09T04:13:37.349Z,95.78
2022-12-09T04:14:39.144Z,96.00
2022-12-09T04:15:40.735Z,96.58
2022-12-09T04:16:42.596Z,96.25
2022-12-09T04:17:44.579Z,96.11
2022-12-09T04:18:46.639Z,95.61
2022-12-09T04:19:48.614Z,96.17
2022-12-09T04:20:50.596Z,96.84
2022-12-09T04:21:52.203Z,97.15
2022-12-09T04:22:53.842Z,98.34
2022-12-09T04:23:55.576Z,97.48
2022-12-09T04:24:57.330Z,97.93
2022-12-09T04:25:58.930Z,97.87
2022-12-09T04:27:00.474Z,97.28
2022-12-09T04:28:02.320Z,98.91
2022-12-09T04:29:04.389Z,99.02
2022-12-09T04:30:07.822Z,99.80
2022-12-09T04:31:14.813Z,98.57
2022-12-09T04:32:16.610Z,99.75
2022-12-09T04:33:18.614Z,98.19
2022-12-09T04:34:20.161Z,98.82
2022-12-09T04:35:23.135Z,100.00
2022-12-09T04:36:25.059Z,99.50
2022-12-09T04:37:26.762Z,100.00
2022-12-09T04:38:28.406Z,100.00
2022-12-09T04:39:31.379Z,100.00
2022-12-09T04:40:33.276Z,100.00
2022-12-09T04:41:35.351Z,100.00
2022-12-09T04:42:37.014Z,100.00
2022-12-09T04:43:39.528Z,100.00
2022-12-09T04:44:41.220Z,100.00
2022-12-09T04:45:42.978Z,100.00
2022-12-09T04:46:45.023Z,100.00
2022-12-09T04:47:46.797Z,100.00
2022-12-09T04:48:48.706Z,100.00
2022-12-09T04:49:50.891Z,100.00
2022-12-09T04:50:52.527Z,100.00
2022-12-09T04:51:54.078Z,100.00
2022-12-09T04:52:55.940Z,100.00
2022-12-09T04:53:57.501Z,100.00
2022-12-09T04:54:59.237Z,100.00
2022-12-09T04:56:05.713Z,100.00
2022-12-09T04:57:08.512Z,100.00
2022-12-09T04:58:10.266Z,100.00
2022-12-09T04:59:11.878Z,100.00
2022-12-09T05:00:14.459Z,100.00
2022-12-09T05:01:21.620Z,99.89
2022-12-09T05:02:26.776Z,99.54
2022-12-09T05:03:28.773Z,98.58
2022-12-09T05:04:30.665Z,99.06
2022-12-09T05:05:32.749Z,99.22
2022-12-09T05:06:34.873Z,98.19
2022-12-09T05:07:37.308Z,97.58
2022-12-09T05:08:40.525Z,96.88
2022-12-09T05:09:42.444Z,96.97
2022-12-09T05:10:49.716Z,96.59
2022-12-09T05:11:52.525Z,96.66
2022-12-09T05:12:54.410Z,96.51
2022-12-09T05:13:56.296Z,96.34
2022-12-09T05:14:58.987Z,96.12
2022-12-09T05:16:02.328Z,97.51
2022-12-09T05:17:04.597Z,97.62
2022-12-09T05:18:06.738Z,98.28
2022-12-09T05:19:08.620Z,97.67
2022-12-09T05:20:10.868Z,97.04
2022-12-09T05:21:16.736Z,96.15
2022-12-09T05:22:19.518Z,95.73
2022-12-09T05:23:21.534Z,95.61
2022-12-09T05:24:23.159Z,95.17
2022-12-09T05:25:25.032Z,94.87
2022-12-09T05:26:26.625Z,94.76
2022-12-09T05:27:28.272Z,94.64
2022-12-09T05:28:30.800Z,94.30
2022-12-09T05:29:32.554Z,93.94
2022-12-09T05:30:34.161Z,92.81
2022-12-09T05:31:35.850Z,92.32
2022-12-09T05:32:37.828Z,91.66
2022-12-09T05:33:39.688Z,92.63
2022-12-09T05:34:41.878Z,92.64
2022-12-09T05:35:52.237Z,92.53
2022-12-09T05:36:54.805Z,93.04
2022-12-09T05:37:56.680Z,94.58
2022-12-09T05:38:58.555Z,96.17
2022-12-09T05:40:00.622Z,97.75
2022-12-09T05:41:02.755Z,98.56
2022-12-09T05:42:04.769Z,99.89
2022-12-09T05:43:06.737Z,99.41
2022-12-09T05:44:11.168Z,100.00
2022-12-09T05:45:13.117Z,100.00
2022-12-09T05:46:15.778Z,100.00
2022-12-09T05:47:17.755Z,99.91
2022-12-09T05:48:19.500Z,100.00
2022-12-09T05:49:21.398Z,99.83
2022-12-09T05:50:23.315Z,98.93
2022-12-09T05:51:28.614Z,99.07
2022-12-09T05:52:30.299Z,99.03
2022-12-09T05:53:32.959Z,99.11
2022-12-09T05:54:34.663Z,98.17
2022-12-09T05:55:40.498Z,97.77
2022-12-09T05:56:47.918Z,97.57
2022-12-09T05:57:51.649Z,96.79
2022-12-09T05:58:54.664Z,96.53
2022-12-09T05:59:56.391Z,96.01
2022-12-09T06:01:07.432Z,95.83
2022-12-09T06:02:10.383Z,95.43
2022-12-09T06:03:13.148Z,95.52
2022-12-09T06:04:15.537Z,95.71
2022-12-09T06:05:18.276Z,95.10
2022-12-09T06:06:23.021Z,94.93
2022-12-09T06:07:25.120Z,95.01
2022-12-09T06:08:27.014Z,93.87
2022-12-09T06:09:29.251Z,95.43
2022-12-09T06:10:31.709Z,95.45
2022-12-09T06:11:33.786Z,95.33
2022-12-09T06:12:35.802Z,95.96
2022-12-09T06:13:37.734Z,97.20
2022-12-09T06:14:39.487Z,97.54
2022-12-09T06:15:41.667Z,97.16
2022-12-09T06:16:43.993Z,95.95
2022-12-09T06:17:46.035Z,95.46
2022-12-09T06:18:49.317Z,95.57
2022-12-09T06:19:51.172Z,95.10
2022-12-09T06:20:52.980Z,94.47
2022-12-09T06:21:54.889Z,95.05
2022-12-09T06:22:57.032Z,94.43
2022-12-09T06:23:58.702Z,94.84
2022-12-09T06:25:00.893Z,95.11
2022-12-09T06:26:04.155Z,94.89
2022-12-09T06:27:05.867Z,94.69
2022-12-09T06:28:07.533Z,94.84
2022-12-09T06:29:09.343Z,94.50
2022-12-09T06:30:11.345Z,95.12
2022-12-09T06:31:13.887Z,95.76
2022-12-09T06:32:15.836Z,95.94
2022-12-09T06:33:45.156Z,96.63
2022-12-09T06:34:39.334Z,96.49
2022-12-09T06:35:41.119Z,97.02
2022-12-09T06:36:42.939Z,96.25
2022-12-09T06:37:44.930Z,96.37
2022-12-09T06:38:46.697Z,96.41
2022-12-09T06:39:48.563Z,95.89
2022-12-09T06:40:50.311Z,96.65
2022-12-09T06:41:52.189Z,97.20
2022-12-09T06:42:54.880Z,97.77
2022-12-09T06:44:00.065Z,97.87
2022-12-09T06:45:01.851Z,97.26
2022-12-09T06:46:04.319Z,97.71
2022-12-09T06:47:07.078Z,97.96
2022-12-09T06:48:09.292Z,97.04
2022-12-09T06:49:11.159Z,96.90
2022-12-09T06:50:13.867Z,97.02
2022-12-09T06:51:17.735Z,96.83
2022-12-09T06:52:19.638Z,96.13
2022-12-09T06:53:21.652Z,95.33
2022-12-09T06:54:23.652Z,95.17
2022-12-09T06:55:25.490Z,94.74
2022-12-09T06:56:27.696Z,95.02
2022-12-09T06:57:29.567Z,94.23
2022-12-09T06:58:31.587Z,94.54
2022-12-09T06:59:33.465Z,93.67
2022-12-09T07:00:35.530Z,93.64
2022-12-09T07:01:38.659Z,92.90
2022-12-09T07:02:40.931Z,92.58
2022-12-09T07:03:45.678Z,93.66
2022-12-09T07:04:53.389Z,93.70
2022-12-09T07:05:55.624Z,93.40
2022-12-09T07:06:57.584Z,93.11
2022-12-09T07:08:00.322Z,93.34
2022-12-09T07:09:14.747Z,93.65
2022-12-09T07:10:16.872Z,93.79
2022-12-09T07:11:19.098Z,93.14
2022-12-09T07:12:20.835Z,93.44
2022-12-09T07:13:22.419Z,93.44
2022-12-09T07:14:24.064Z,92.99
2022-12-09T07:15:25.857Z,93.77
2022-12-09T07:16:28.480Z,93.65
2022-12-09T07:17:30.486Z,93.36
2022-12-09T07:18:32.203Z,93.91
2022-12-09T07:19:34.447Z,94.10
2022-12-09T07:20:36.181Z,93.34
2022-12-09T07:21:38.383Z,93.95
2022-12-09T07:22:40.267Z,94.23
2022-12-09T07:23:42.849Z,93.42
2022-12-09T07:24:44.712Z,93.30
2022-12-09T07:25:56.425Z,94.07
2022-12-09T07:27:04.618Z,94.84
2022-12-09T07:28:09.192Z,94.42
2022-12-09T07:29:11.097Z,94.26
2022-12-09T07:30:13.016Z,94.71
2022-12-09T07:31:25.901Z,94.13
2022-12-09T07:32:28.275Z,94.23
2022-12-09T07:33:30.481Z,94.16
2022-12-09T07:34:32.451Z,93.69
2022-12-09T07:35:34.596Z,93.81
2022-12-09T07:36:36.704Z,94.32
2022-12-09T07:37:38.685Z,93.96
2022-12-09T07:38:40.426Z,94.55
2022-12-09T07:39:42.433Z,94.37
2022-12-09T07:40:44.331Z,94.55
2022-12-09T07:41:48.421Z,93.94
2022-12-09T07:42:54.848Z,94.24
2022-12-09T07:43:59.862Z,93.72
2022-12-09T07:45:01.581Z,93.81
2022-12-09T07:46:07.737Z,93.73
2022-12-09T07:47:10.083Z,93.67
2022-12-09T07:48:12.170Z,93.61
2022-12-09T07:49:15.119Z,93.67
2022-12-09T07:50:17.177Z,93.60
2022-12-09T07:51:19.316Z,93.98
2022-12-09T07:52:21.665Z,94.08
2022-12-09T07:53:23.643Z,93.87
2022-12-09T07:54:25.296Z,94.29
2022-12-09T07:55:27.504Z,94.43
2022-12-09T07:56:29.407Z,94.27
2022-12-09T07:57:31.197Z,93.64
2022-12-09T07:58:34.257Z,93.85
2022-12-09T07:59:36.062Z,93.73
2022-12-09T08:00:37.892Z,92.64
2022-12-09T08:01:40.147Z,92.04
2022-12-09T08:02:42.137Z,92.26
2022-12-09T08:03:44.569Z,92.08
2022-12-09T08:04:46.932Z,91.65
2022-12-09T08:05:50.794Z,91.37
2022-12-09T08:06:52.727Z,91.04
2022-12-09T08:07:54.630Z,90.87
2022-12-09T08:09:01.811Z,91.15
2022-12-09T08:10:04.517Z,90.46
2022-12-09T08:11:14.654Z,89.62
2022-12-09T08:12:16.515Z,89.31
2022-12-09T08:13:18.292Z,89.52
2022-12-09T08:14:20.451Z,89.26
2022-12-09T08:15:22.191Z,89.39
2022-12-09T08:16:24.278Z,89.82
2022-12-09T08:17:27.442Z,89.99
2022-12-09T08:18:29.200Z,89.16
2022-12-09T08:19:31.389Z,89.60
2022-12-09T08:20:33.585Z,90.35
2022-12-09T08:21:36.062Z,90.21
2022-12-09T08:22:38.363Z,90.35
2022-12-09T08:23:41.133Z,89.79
2022-12-09T08:24:43.370Z,89.80
2022-12-09T08:25:45.283Z,89.89
2022-12-09T08:26:49.441Z,90.09
2022-12-09T08:27:51.353Z,89.77
2022-12-09T08:28:53.199Z,90.64
2022-12-09T08:29:55.621Z,89.83
2022-12-09T08:30:57.812Z,87.67
2022-12-09T08:31:59.996Z,88.24
2022-12-09T08:33:01.863Z,88.45
2022-12-09T08:34:05.491Z,88.63
2022-12-09T08:35:08.161Z,88.31
2022-12-09T08:36:15.881Z,87.71
2022-12-09T08:37:17.682Z,88.04
2022-12-09T08:38:19.277Z,88.21
2022-12-09T08:39:20.912Z,87.55
2022-12-09T08:40:22.950Z,87.46
2022-12-09T08:41:35.947Z,87.85
2022-12-09T08:42:38.615Z,87.06
2022-12-09T08:43:41.423Z,87.71
2022-12-09T08:44:43.467Z,86.99
2022-12-09T08:45:45.208Z,87.02
2022-12-09T08:46:52.002Z,86.61
2022-12-09T08:47:54.150Z,85.81
2022-12-09T08:48:56.311Z,85.56
2022-12-09T08:49:58.455Z,85.79
2022-12-09T08:51:00.716Z,86.20
2022-12-09T08:52:02.579Z,84.59
2022-12-09T08:53:04.656Z,84.50
2022-12-09T08:54:06.952Z,84.14
2022-12-09T08:55:09.558Z,84.14
2022-12-09T08:56:13.166Z,84.75
2022-12-09T08:57:15.511Z,85.38
2022-12-09T08:58:17.368Z,86.46
2022-12-09T08:59:19.455Z,85.52
2022-12-09T09:00:21.636Z,84.40
2022-12-09T09:01:27.061Z,84.73
2022-12-09T09:02:29.319Z,85.26
2022-12-09T09:03:32.248Z,84.43
2022-12-09T09:04:34.834Z,84.65
2022-12-09T09:05:36.671Z,84.18
2022-12-09T09:06:41.538Z,84.77
2022-12-09T09:07:43.799Z,84.87
2022-12-09T09:08:45.956Z,84.73
2022-12-09T09:09:48.060Z,84.53
2022-12-09T09:10:49.998Z,82.91
2022-12-09T09:11:51.973Z,84.12
2022-12-09T09:12:53.691Z,83.55
2022-12-09T09:13:55.512Z,84.63
2022-12-09T09:14:57.441Z,85.32
2022-12-09T09:15:59.351Z,84.98
2022-12-09T09:17:01.807Z,84.26
2022-12-09T09:18:03.845Z,84.46
2022-12-09T09:19:06.793Z,84.99
2022-12-09T09:20:09.628Z,83.81
2022-12-09T09:21:14.157Z,83.16
2022-12-09T09:22:16.427Z,83.44
2022-12-09T09:23:18.460Z,82.97
2022-12-09T09:24:23.355Z,83.80
2022-12-09T09:25:25.551Z,83.26
2022-12-09T09:26:30.995Z,82.84
2022-12-09T09:27:34.737Z,82.39
2022-12-09T09:28:36.730Z,83.34
2022-12-09T09:29:38.400Z,82.96
2022-12-09T09:30:40.138Z,83.53
2022-12-09T09:31:42.420Z,83.40
2022-12-09T09:32:45.389Z,83.72
2022-12-09T09:33:48.124Z,84.21
2022-12-09T09:34:50.774Z,83.99
2022-12-09T09:36:05.537Z,83.26
2022-12-09T09:37:10.135Z,82.12
2022-12-09T09:38:12.051Z,83.17
2022-12-09T09:39:13.910Z,82.79
2022-12-09T09:40:15.781Z,82.71
2022-12-09T09:41:27.826Z,81.80
2022-12-09T09:42:36.488Z,82.15
2022-12-09T09:43:39.011Z,81.37
2022-12-09T09:44:45.659Z,82.11
2022-12-09T09:45:48.166Z,82.62
2022-12-09T09:46:51.747Z,82.52
2022-12-09T09:48:02.975Z,81.39
2022-12-09T09:49:10.674Z,81.78
2022-12-09T09:50:44.496Z,81.72
2022-12-09T09:51:47.711Z,81.96
2022-12-09T09:52:52.575Z,81.93
2022-12-09T09:53:54.882Z,80.58
2022-12-09T09:54:57.849Z,79.74
2022-12-09T09:56:07.181Z,80.21
2022-12-09T09:57:55.028Z,80.68
2022-12-09T09:59:37.492Z,78.69
2022-12-09T10:00:50.851Z,79.52
2022-12-09T10:02:22.233Z,80.12
2022-12-09T10:03:37.299Z,79.71
2022-12-09T10:05:02.263Z,79.91
2022-12-09T10:06:13.780Z,80.03
2022-12-09T10:07:30.680Z,79.09
2022-12-09T10:08:56.374Z,78.41
2022-12-09T10:10:21.136Z,78.60
2022-12-09T10:11:39.671Z,78.39
2022-12-09T10:12:48.288Z,79.09
2022-12-09T10:14:05.346Z,78.77
2022-12-09T10:15:20.780Z,78.95
2022-12-09T10:16:34.750Z,78.68
2022-12-09T10:18:00.580Z,77.96
2022-12-09T10:19:09.629Z,79.15
2022-12-09T10:20:18.944Z,78.83
2022-12-09T10:21:21.822Z,79.02
2022-12-09T10:22:28.952Z,78.53
2022-12-09T10:23:33.096Z,79.44
2022-12-09T10:24:39.871Z,79.15
2022-12-09T10:25:52.871Z,78.89
2022-12-09T10:26:58.566Z,79.18
2022-12-09T10:28:15.499Z,79.19
2022-12-09T10:29:25.203Z,79.98
2022-12-09T10:30:33.431Z,78.80
2022-12-09T10:31:38.226Z,79.00
2022-12-09T10:32:40.482Z,79.08
2022-12-09T10:33:45.709Z,79.24
2022-12-09T10:34:49.565Z,79.27
2022-12-09T10:35:51.490Z,78.95
2022-12-09T10:36:54.552Z,79.05
2022-12-09T10:38:07.521Z,79.00
2022-12-09T10:39:15.858Z,78.58
2022-12-09T10:40:37.738Z,78.93
2022-12-09T10:42:00.797Z,78.73
2022-12-09T10:43:40.263Z,78.98
2022-12-09T10:44:42.439Z,79.19
2022-12-09T10:47:26.377Z,78.92
2022-12-09T10:48:36.397Z,78.41
2022-12-09T10:49:43.064Z,78.65
2022-12-09T10:50:45.409Z,78.96
2022-12-09T10:51:50.233Z,79.58
2022-12-09T10:52:52.683Z,79.40
2022-12-09T10:54:22.307Z,79.52
2022-12-09T10:55:31.397Z,79.32
2022-12-09T10:56:36.855Z,79.24
2022-12-09T10:57:38.767Z,79.31
2022-12-09T10:58:40.715Z,79.26
2022-12-09T10:59:56.111Z,80.07
2022-12-09T11:01:02.997Z,79.14
2022-12-09T11:02:11.065Z,79.56
2022-12-09T11:03:29.682Z,79.70
2022-12-09T11:04:43.293Z,79.60
2022-12-09T11:05:46.072Z,79.34
2022-12-09T11:06:55.504Z,79.79
2022-12-09T11:08:00.983Z,78.93
2022-12-09T11:09:04.176Z,79.28
2022-12-09T11:10:18.151Z,79.21
2022-12-09T11:11:23.425Z,79.09
2022-12-09T11:12:30.873Z,79.82
2022-12-09T11:13:41.223Z,79.33
2022-12-09T11:14:51.890Z,79.50
2022-12-09T11:15:55.398Z,79.30
2022-12-09T11:17:00.526Z,79.20
2022-12-09T11:18:14.139Z,79.20
2022-12-09T11:19:16.408Z,79.43
2022-12-09T11:20:24.478Z,79.79
2022-12-09T11:21:33.432Z,79.40
2022-12-09T11:22:42.648Z,79.83
2022-12-09T11:23:58.850Z,79.27
2022-12-09T11:25:16.592Z,79.51
2022-12-09T11:26:33.100Z,79.58
2022-12-09T11:27:35.606Z,79.01
2022-12-09T11:28:39.480Z,79.36
2022-12-09T11:29:41.155Z,79.17
2022-12-09T11:31:27.906Z,79.16
2022-12-09T11:32:20.738Z,79.37
2022-12-09T11:33:25.608Z,79.26
2022-12-09T11:34:28.173Z,79.35
2022-12-09T11:35:44.938Z,79.67
2022-12-09T11:36:52.590Z,79.43
2022-12-09T11:37:54.689Z,80.02
2022-12-09T11:39:20.574Z,80.18
2022-12-09T11:40:25.553Z,80.38
2022-12-09T11:41:46.171Z,80.40
2022-12-09T11:42:53.065Z,80.78
2022-12-09T11:43:56.567Z,80.73
2022-12-09T11:45:02.931Z,80.50
2022-12-09T11:46:28.853Z,80.76
2022-12-09T11:49:18.365Z,80.72
2022-12-09T11:50:25.278Z,80.68
2022-12-09T11:51:31.198Z,80.90
2022-12-09T11:52:32.957Z,81.21
2022-12-09T11:53:40.717Z,81.19
2022-12-09T11:55:06.794Z,81.18
2022-12-09T11:56:17.385Z,82.08
2022-12-09T11:57:34.335Z,82.62
2022-12-09T11:58:52.489Z,82.88
2022-12-09T12:00:00.973Z,82.84
2022-12-09T12:01:26.062Z,82.82
2022-12-09T12:02:40.440Z,82.99
2022-12-09T12:03:47.402Z,83.45
2022-12-09T12:04:58.143Z,83.84
2022-12-09T12:06:02.910Z,83.93
2022-12-09T12:07:15.890Z,83.99
2022-12-09T12:08:31.758Z,84.33
2022-12-09T12:09:55.097Z,84.09
2022-12-09T12:11:00.923Z,84.90
2022-12-09T12:12:19.342Z,84.89
2022-12-09T12:13:47.166Z,84.50
2022-12-09T12:14:48.726Z,84.41
2022-12-09T12:16:00.786Z,84.78
2022-12-09T12:17:15.107Z,84.71
2022-12-09T12:18:22.511Z,85.04
2022-12-09T12:19:30.860Z,84.50
2022-12-09T12:21:11.221Z,84.47
2022-12-09T12:22:36.718Z,85.60
2022-12-09T12:23:53.599Z,85.73
2022-12-09T12:25:32.748Z,85.83
2022-12-09T12:26:42.097Z,85.46
2022-12-09T12:28:16.111Z,86.27
2022-12-09T12:29:28.460Z,85.62
2022-12-09T12:30:45.071Z,85.81
2022-12-09T12:32:11.342Z,85.44
2022-12-09T12:34:00.574Z,86.18
2022-12-09T12:34:55.475Z,86.07
2022-12-09T12:36:03.285Z,86.03
2022-12-09T12:37:19.653Z,86.73
2022-12-09T12:38:44.925Z,87.09
2022-12-09T12:39:52.670Z,87.01
2022-12-09T12:41:23.309Z,86.89
2022-12-09T12:43:09.170Z,87.45
2022-12-09T12:46:47.173Z,87.40
2022-12-09T12:48:04.437Z,87.49
2022-12-09T12:49:17.941Z,87.88
2022-12-09T12:50:50.528Z,87.47
2022-12-09T12:52:26.338Z,87.99
2022-12-09T12:53:32.011Z,88.04
2022-12-09T12:54:46.807Z,88.28
2022-12-09T12:55:54.176Z,87.77
2022-12-09T12:57:49.734Z,88.12
2022-12-09T12:59:21.827Z,87.48
2022-12-09T13:00:33.913Z,87.80
2022-12-09T13:01:58.863Z,87.93
2022-12-09T13:03:09.544Z,87.72
2022-12-09T13:04:46.845Z,87.63
2022-12-09T13:05:51.382Z,88.06
2022-12-09T13:07:14.127Z,88.67
2022-12-09T13:08:33.072Z,88.42
2022-12-09T13:09:53.641Z,88.18
2022-12-09T13:11:02.019Z,88.40
2022-12-09T13:12:54.399Z,88.60
2022-12-09T13:14:07.608Z,88.65
2022-12-09T13:15:15.467Z,89.39
2022-12-09T13:16:24.723Z,89.10
2022-12-09T13:17:29.292Z,89.30
2022-12-09T13:18:37.597Z,89.82
2022-12-09T13:19:51.302Z,89.75
2022-12-09T13:20:57.683Z,90.01
2022-12-09T13:21:59.389Z,90.27
2022-12-09T13:23:23.713Z,90.22
2022-12-09T13:24:46.210Z,90.33
2022-12-09T13:26:13.700Z,90.19
2022-12-09T13:27:31.571Z,90.19
2022-12-09T13:28:55.963Z,90.87
2022-12-09T13:30:00.965Z,91.16
2022-12-09T13:31:08.153Z,90.95
2022-12-09T13:32:32.952Z,91.27
2022-12-09T13:34:00.422Z,91.14
2022-12-09T13:35:16.650Z,91.75
2022-12-09T13:36:18.123Z,91.53
2022-12-09T13:37:38.016Z,92.07
2022-12-09T13:38:42.718Z,91.77
2022-12-09T13:39:50.346Z,92.04
2022-12-09T13:40:52.229Z,92.07
2022-12-09T13:42:12.321Z,92.40
2022-12-09T13:43:27.060Z,92.89
2022-12-09T13:44:34.963Z,93.37
2022-12-09T13:45:42.700Z,93.83
2022-12-09T13:46:45.129Z,94.08
2022-12-09T13:47:47.464Z,94.17
2022-12-09T13:48:49.718Z,94.15
2022-12-09T13:50:00.807Z,93.72
2022-12-09T13:51:03.713Z,93.90
2022-12-09T13:52:05.609Z,94.04
2022-12-09T13:53:19.428Z,93.85
2022-12-09T13:54:30.556Z,94.20
2022-12-09T13:55:36.664Z,94.19
2022-12-09T13:56:39.221Z,94.19
2022-12-09T13:57:57.007Z,94.47
2022-12-09T13:59:24.911Z,94.32
2022-12-09T14:00:27.063Z,94.43
2022-12-09T14:01:47.389Z,94.17
2022-12-09T14:02:58.801Z,94.18
2022-12-09T14:04:12.380Z,94.24
2022-12-09T14:05:18.894Z,94.51
2022-12-09T14:06:31.587Z,94.84
2022-12-09T14:07:38.947Z,94.48
2022-12-09T14:08:48.480Z,94.34
2022-12-09T14:09:57.483Z,94.02
2022-12-09T14:10:59.301Z,94.07
2022-12-09T14:12:06.524Z,93.78
2022-12-09T14:13:37.238Z,93.68
2022-12-09T14:14:44.796Z,93.82
2022-12-09T14:15:47.935Z,94.14
2022-12-09T14:16:50.831Z,94.35
2022-12-09T14:17:52.372Z,94.70
2022-12-09T14:18:57.688Z,94.73
2022-12-09T14:20:17.529Z,94.84
2022-12-09T14:21:19.137Z,95.04
2022-12-09T14:22:21.697Z,95.12
2022-12-09T14:23:23.474Z,95.33
2022-12-09T14:24:24.990Z,95.43